sensor_id;sensor_type;location;lat;lon;timestamp;pressure;altitude;pressure_sealevel;temperature;humidity
76940;BME280;65885;55.848;35.916;2023-06-10T00:02:23;99784.09;;;10.61;59.82
76940;BME280;65885;55.848;35.916;2023-06-10T00:04:51;99782.25;;;10.39;60.25
76940;BME280;65885;55.848;35.916;2023-06-10T00:07:18;99782.03;;;10.19;60.43
76940;BME280;65885;55.848;35.916;2023-06-10T00:09:45;99776.59;;;10.00;60.89
76940;BME280;65885;55.848;35.916;2023-06-10T00:12:13;99779.84;;;9.80;61.30
76940;BME280;65885;55.848;35.916;2023-06-10T00:14:40;99780.41;;;9.63;61.71
76940;BME280;65885;55.848;35.916;2023-06-10T00:17:08;99785.28;;;9.48;62.17
76940;BME280;65885;55.848;35.916;2023-06-10T00:19:37;99793.63;;;9.32;62.48
76940;BME280;65885;55.848;35.916;2023-06-10T00:22:07;99794.88;;;9.19;62.96
76940;BME280;65885;55.848;35.916;2023-06-10T00:24:36;99803.81;;;9.12;63.28
76940;BME280;65885;55.848;35.916;2023-06-10T00:27:04;99802.72;;;9.19;64.18
76940;BME280;65885;55.848;35.916;2023-06-10T00:29:33;99809.13;;;9.38;63.83
76940;BME280;65885;55.848;35.916;2023-06-10T00:32:00;99797.03;;;9.62;62.82
76940;BME280;65885;55.848;35.916;2023-06-10T00:34:28;99800.63;;;9.86;62.17
76940;BME280;65885;55.848;35.916;2023-06-10T00:36:56;99798.16;;;10.08;61.25
76940;BME280;65885;55.848;35.916;2023-06-10T00:39:24;99803.59;;;10.28;60.54
76940;BME280;65885;55.848;35.916;2023-06-10T00:41:51;99797.81;;;10.44;60.21
76940;BME280;65885;55.848;35.916;2023-06-10T00:44:19;99808.97;;;10.50;59.56
76940;BME280;65885;55.848;35.916;2023-06-10T00:46:46;99807.34;;;10.46;59.22
76940;BME280;65885;55.848;35.916;2023-06-10T00:49:15;99807.88;;;10.31;59.24
76940;BME280;65885;55.848;35.916;2023-06-10T00:51:44;99812.03;;;10.10;59.31
76940;BME280;65885;55.848;35.916;2023-06-10T00:54:13;99820.66;;;9.87;59.28
76940;BME280;65885;55.848;35.916;2023-06-10T00:56:41;99811.78;;;9.65;59.54
76940;BME280;65885;55.848;35.916;2023-06-10T00:59:09;99828.25;;;9.40;60.08
76940;BME280;65885;55.848;35.916;2023-06-10T01:01:37;99822.81;;;9.18;60.47
76940;BME280;65885;55.848;35.916;2023-06-10T01:04:05;99826.84;;;8.99;60.96
76940;BME280;65885;55.848;35.916;2023-06-10T01:06:40;99826.63;;;8.77;61.74
76940;BME280;65885;55.848;35.916;2023-06-10T01:09:21;99829.72;;;8.59;61.89
76940;BME280;65885;55.848;35.916;2023-06-10T01:11:58;99832.81;;;8.42;62.74
76940;BME280;65885;55.848;35.916;2023-06-10T01:14:27;99827.09;;;8.26;63.35
76940;BME280;65885;55.848;35.916;2023-06-10T01:16:58;99839.59;;;8.14;64.19
76940;BME280;65885;55.848;35.916;2023-06-10T01:19:26;99834.53;;;8.07;64.38
76940;BME280;65885;55.848;35.916;2023-06-10T01:21:55;99836.31;;;8.05;64.87
76940;BME280;65885;55.848;35.916;2023-06-10T01:24:26;99838.00;;;8.08;65.59
76940;BME280;65885;55.848;35.916;2023-06-10T01:26:55;99831.81;;;8.12;64.87
76940;BME280;65885;55.848;35.916;2023-06-10T01:29:31;99841.25;;;8.18;64.32
76940;BME280;65885;55.848;35.916;2023-06-10T01:32:04;99849.78;;;8.24;64.58
76940;BME280;65885;55.848;35.916;2023-06-10T01:34:33;99849.66;;;8.29;64.71
76940;BME280;65885;55.848;35.916;2023-06-10T01:37:05;99856.53;;;8.33;64.67
76940;BME280;65885;55.848;35.916;2023-06-10T01:39:33;99856.47;;;8.36;64.21
76940;BME280;65885;55.848;35.916;2023-06-10T01:42:02;99859.03;;;8.38;63.58
76940;BME280;65885;55.848;35.916;2023-06-10T01:44:30;99850.47;;;8.32;63.86
76940;BME280;65885;55.848;35.916;2023-06-10T01:46:57;99855.88;;;8.23;63.52
76940;BME280;65885;55.848;35.916;2023-06-10T01:49:25;99858.78;;;8.13;64.19
76940;BME280;65885;55.848;35.916;2023-06-10T01:51:54;99861.66;;;8.02;63.72
76940;BME280;65885;55.848;35.916;2023-06-10T01:54:23;99861.06;;;7.91;63.91
76940;BME280;65885;55.848;35.916;2023-06-10T01:56:50;99869.16;;;7.80;64.64
76940;BME280;65885;55.848;35.916;2023-06-10T01:59:18;99871.97;;;7.71;65.09
76940;BME280;65885;55.848;35.916;2023-06-10T02:01:45;99870.41;;;7.62;64.59
76940;BME280;65885;55.848;35.916;2023-06-10T02:04:13;99872.34;;;7.54;64.94
76940;BME280;65885;55.848;35.916;2023-06-10T02:06:40;99884.66;;;7.47;65.20
76940;BME280;65885;55.848;35.916;2023-06-10T02:09:08;99876.13;;;7.41;65.21
76940;BME280;65885;55.848;35.916;2023-06-10T02:11:37;99886.66;;;7.36;65.73
76940;BME280;65885;55.848;35.916;2023-06-10T02:14:05;99888.44;;;7.34;66.71
76940;BME280;65885;55.848;35.916;2023-06-10T02:16:32;99890.09;;;7.38;67.01
76940;BME280;65885;55.848;35.916;2023-06-10T02:19:00;99887.31;;;7.46;66.68
76940;BME280;65885;55.848;35.916;2023-06-10T02:21:29;99894.94;;;7.57;66.73
76940;BME280;65885;55.848;35.916;2023-06-10T02:23:56;99900.72;;;7.69;66.56
76940;BME280;65885;55.848;35.916;2023-06-10T02:26:23;99904.84;;;7.79;66.49
76940;BME280;65885;55.848;35.916;2023-06-10T02:28:53;99898.50;;;7.90;65.73
76940;BME280;65885;55.848;35.916;2023-06-10T02:31:20;99903.47;;;8.00;66.51
76940;BME280;65885;55.848;35.916;2023-06-10T02:33:49;99905.03;;;8.09;65.56
76940;BME280;65885;55.848;35.916;2023-06-10T02:36:17;99910.13;;;8.14;65.69
76940;BME280;65885;55.848;35.916;2023-06-10T02:38:47;99910.13;;;8.14;65.51
76940;BME280;65885;55.848;35.916;2023-06-10T02:41:14;99915.44;;;8.11;65.80
76940;BME280;65885;55.848;35.916;2023-06-10T02:43:42;99910.28;;;8.07;66.55
76940;BME280;65885;55.848;35.916;2023-06-10T02:46:11;99913.88;;;8.03;66.43
76940;BME280;65885;55.848;35.916;2023-06-10T02:48:41;99910.44;;;8.01;66.75
76940;BME280;65885;55.848;35.916;2023-06-10T02:51:10;99917.47;;;7.98;67.35
76940;BME280;65885;55.848;35.916;2023-06-10T02:53:37;99914.91;;;7.96;66.95
76940;BME280;65885;55.848;35.916;2023-06-10T02:56:05;99921.03;;;7.95;67.64
76940;BME280;65885;55.848;35.916;2023-06-10T02:58:32;99925.34;;;7.96;67.81
76940;BME280;65885;55.848;35.916;2023-06-10T03:01:00;99925.34;;;7.96;67.95
76940;BME280;65885;55.848;35.916;2023-06-10T03:03:29;99923.56;;;7.98;68.55
76940;BME280;65885;55.848;35.916;2023-06-10T03:05:58;99920.81;;;8.04;68.66
76940;BME280;65885;55.848;35.916;2023-06-10T03:08:25;99926.59;;;8.17;68.38
76940;BME280;65885;55.848;35.916;2023-06-10T03:10:53;99925.41;;;8.30;68.59
76940;BME280;65885;55.848;35.916;2023-06-10T03:13:20;99929.41;;;8.45;68.28
76940;BME280;65885;55.848;35.916;2023-06-10T03:15:48;99928.16;;;8.61;68.09
76940;BME280;65885;55.848;35.916;2023-06-10T03:18:15;99930.41;;;8.75;68.25
76940;BME280;65885;55.848;35.916;2023-06-10T03:20:44;99929.09;;;8.92;67.90
76940;BME280;65885;55.848;35.916;2023-06-10T03:23:13;99927.84;;;9.05;67.58
76940;BME280;65885;55.848;35.916;2023-06-10T03:25:41;99924.22;;;9.10;67.20
76940;BME280;65885;55.848;35.916;2023-06-10T03:28:08;99926.72;;;9.15;66.68
76940;BME280;65885;55.848;35.916;2023-06-10T03:30:36;99928.44;;;9.16;67.54
76940;BME280;65885;55.848;35.916;2023-06-10T03:33:03;99929.28;;;9.16;67.30
76940;BME280;65885;55.848;35.916;2023-06-10T03:35:31;99928.44;;;9.16;67.44
76940;BME280;65885;55.848;35.916;2023-06-10T03:38:00;99931.00;;;9.17;67.93
76940;BME280;65885;55.848;35.916;2023-06-10T03:40:27;99931.88;;;9.18;67.93
76940;BME280;65885;55.848;35.916;2023-06-10T03:42:56;99932.66;;;9.20;68.12
76940;BME280;65885;55.848;35.916;2023-06-10T03:45:23;99933.50;;;9.22;67.85
76940;BME280;65885;55.848;35.916;2023-06-10T03:47:53;99935.16;;;9.25;67.94
76940;BME280;65885;55.848;35.916;2023-06-10T03:50:21;99929.84;;;9.28;67.96
76940;BME280;65885;55.848;35.916;2023-06-10T03:52:50;99932.34;;;9.32;68.17
76940;BME280;65885;55.848;35.916;2023-06-10T03:55:19;99927.84;;;9.36;68.06
76940;BME280;65885;55.848;35.916;2023-06-10T03:57:47;99930.31;;;9.42;68.17
76940;BME280;65885;55.848;35.916;2023-06-10T04:00:16;99940.47;;;9.53;68.37
76940;BME280;65885;55.848;35.916;2023-06-10T04:02:44;99933.03;;;9.68;68.46
76940;BME280;65885;55.848;35.916;2023-06-10T04:05:14;99941.22;;;9.86;68.07
76940;BME280;65885;55.848;35.916;2023-06-10T04:07:42;99947.63;;;10.05;67.88
76940;BME280;65885;55.848;35.916;2023-06-10T04:10:10;99949.63;;;10.25;67.53
76940;BME280;65885;55.848;35.916;2023-06-10T04:12:40;99948.16;;;10.44;66.98
76940;BME280;65885;55.848;35.916;2023-06-10T04:15:08;99958.06;;;10.61;66.43
76940;BME280;65885;55.848;35.916;2023-06-10T04:17:35;99952.47;;;10.72;66.17
76940;BME280;65885;55.848;35.916;2023-06-10T04:20:03;99954.81;;;10.79;65.87
76940;BME280;65885;55.848;35.916;2023-06-10T04:22:33;99950.28;;;10.84;65.93
76940;BME280;65885;55.848;35.916;2023-06-10T04:25:00;99945.75;;;10.90;66.04
76940;BME280;65885;55.848;35.916;2023-06-10T04:27:30;99947.34;;;10.94;65.64
76940;BME280;65885;55.848;35.916;2023-06-10T04:29:59;99953.34;;;10.97;65.99
76940;BME280;65885;55.848;35.916;2023-06-10T04:32:26;99951.47;;;11.01;65.84
76940;BME280;65885;55.848;35.916;2023-06-10T04:34:54;99950.41;;;11.06;66.11
76940;BME280;65885;55.848;35.916;2023-06-10T04:37:22;99950.84;;;11.18;66.50
76940;BME280;65885;55.848;35.916;2023-06-10T04:39:49;99951.22;;;11.32;66.17
76940;BME280;65885;55.848;35.916;2023-06-10T04:42:16;99955.91;;;11.47;65.84
76940;BME280;65885;55.848;35.916;2023-06-10T04:44:44;99954.50;;;11.62;65.66
76940;BME280;65885;55.848;35.916;2023-06-10T04:47:12;99955.75;;;11.75;65.17
76940;BME280;65885;55.848;35.916;2023-06-10T04:49:40;99961.53;;;11.85;64.86
76940;BME280;65885;55.848;35.916;2023-06-10T04:52:07;99968.34;;;11.90;64.41
76940;BME280;65885;55.848;35.916;2023-06-10T04:54:35;99964.56;;;11.98;64.41
76940;BME280;65885;55.848;35.916;2023-06-10T04:57:03;99962.63;;;12.03;64.40
76940;BME280;65885;55.848;35.916;2023-06-10T04:59:31;99971.13;;;12.09;64.41
76940;BME280;65885;55.848;35.916;2023-06-10T05:01:59;99971.72;;;12.16;64.03
76940;BME280;65885;55.848;35.916;2023-06-10T05:04:27;99972.25;;;12.24;64.72
76940;BME280;65885;55.848;35.916;2023-06-10T05:06:55;99971.16;;;12.30;64.05
76940;BME280;65885;55.848;35.916;2023-06-10T05:09:23;99976.97;;;12.38;64.02
76940;BME280;65885;55.848;35.916;2023-06-10T05:11:51;99975.81;;;12.45;63.62
76940;BME280;65885;55.848;35.916;2023-06-10T05:14:19;99973.69;;;12.55;63.98
76940;BME280;65885;55.848;35.916;2023-06-10T05:16:47;99983.91;;;12.62;63.42
76940;BME280;65885;55.848;35.916;2023-06-10T05:19:15;99979.75;;;12.77;63.46
76940;BME280;65885;55.848;35.916;2023-06-10T05:21:45;99985.97;;;12.96;63.55
76940;BME280;65885;55.848;35.916;2023-06-10T05:24:13;99978.84;;;13.19;63.73
76940;BME280;65885;55.848;35.916;2023-06-10T05:26:40;99980.50;;;13.42;63.53
76940;BME280;65885;55.848;35.916;2023-06-10T05:29:08;99978.69;;;13.63;62.58
76940;BME280;65885;55.848;35.916;2023-06-10T05:31:36;99983.13;;;13.81;61.84
76940;BME280;65885;55.848;35.916;2023-06-10T05:34:03;99983.41;;;13.94;60.63
76940;BME280;65885;55.848;35.916;2023-06-10T05:36:31;99980.34;;;14.03;60.28
76940;BME280;65885;55.848;35.916;2023-06-10T05:38:59;99980.84;;;14.11;59.79
76940;BME280;65885;55.848;35.916;2023-06-10T05:41:27;99985.66;;;14.20;59.35
76940;BME280;65885;55.848;35.916;2023-06-10T05:43:55;99983.47;;;14.30;59.69
76940;BME280;65885;55.848;35.916;2023-06-10T05:46:22;99986.66;;;14.36;59.16
76940;BME280;65885;55.848;35.916;2023-06-10T05:48:50;99993.38;;;14.43;59.36
76940;BME280;65885;55.848;35.916;2023-06-10T05:51:17;99984.84;;;14.56;59.14
76940;BME280;65885;55.848;35.916;2023-06-10T05:53:44;99985.97;;;14.69;59.45
76940;BME280;65885;55.848;35.916;2023-06-10T05:56:14;99983.19;;;14.89;59.78
76940;BME280;65885;55.848;35.916;2023-06-10T05:58:42;99991.13;;;15.07;58.29
76940;BME280;65885;55.848;35.916;2023-06-10T06:01:09;99987.28;;;15.30;58.28
76940;BME280;65885;55.848;35.916;2023-06-10T06:03:37;99984.66;;;15.63;58.36
76940;BME280;65885;55.848;35.916;2023-06-10T06:06:04;99984.38;;;16.00;58.25
76940;BME280;65885;55.848;35.916;2023-06-10T06:08:32;99994.47;;;16.41;58.38
76940;BME280;65885;55.848;35.916;2023-06-10T06:11:00;99990.81;;;16.89;58.16
76940;BME280;65885;55.848;35.916;2023-06-10T06:13:29;99998.50;;;17.38;57.30
76940;BME280;65885;55.848;35.916;2023-06-10T06:15:56;99996.34;;;17.88;56.99
76940;BME280;65885;55.848;35.916;2023-06-10T06:18:24;99992.47;;;18.35;55.61
76940;BME280;65885;55.848;35.916;2023-06-10T06:20:52;99995.56;;;18.82;56.46
76940;BME280;65885;55.848;35.916;2023-06-10T06:23:19;99998.19;;;19.22;55.58
76940;BME280;65885;55.848;35.916;2023-06-10T06:25:46;100001.63;;;19.62;54.72
76940;BME280;65885;55.848;35.916;2023-06-10T06:28:14;100002.34;;;20.03;53.94
76940;BME280;65885;55.848;35.916;2023-06-10T06:30:42;99998.94;;;20.37;52.69
76940;BME280;65885;55.848;35.916;2023-06-10T06:33:10;100010.94;;;20.80;52.73
76940;BME280;65885;55.848;35.916;2023-06-10T06:35:38;99999.19;;;21.17;52.17
76940;BME280;65885;55.848;35.916;2023-06-10T06:38:07;100004.75;;;21.49;51.21
76940;BME280;65885;55.848;35.916;2023-06-10T06:40:34;100003.91;;;21.71;49.91
76940;BME280;65885;55.848;35.916;2023-06-10T06:43:02;100010.47;;;21.78;48.00
76940;BME280;65885;55.848;35.916;2023-06-10T06:45:29;100014.50;;;21.84;47.45
76940;BME280;65885;55.848;35.916;2023-06-10T06:47:58;100021.38;;;21.75;45.52
76940;BME280;65885;55.848;35.916;2023-06-10T06:50:26;100018.59;;;21.54;43.92
76940;BME280;65885;55.848;35.916;2023-06-10T06:52:53;100026.03;;;21.27;43.05
76940;BME280;65885;55.848;35.916;2023-06-10T06:55:21;100036.88;;;21.01;42.38
76940;BME280;65885;55.848;35.916;2023-06-10T06:57:48;100040.38;;;20.78;43.48
76940;BME280;65885;55.848;35.916;2023-06-10T07:00:16;100043.03;;;20.54;43.17
76940;BME280;65885;55.848;35.916;2023-06-10T07:02:44;100036.47;;;20.34;43.81
76940;BME280;65885;55.848;35.916;2023-06-10T07:05:14;100040.13;;;20.20;44.40
76940;BME280;65885;55.848;35.916;2023-06-10T07:07:42;100039.53;;;20.04;43.85
76940;BME280;65885;55.848;35.916;2023-06-10T07:10:10;100035.06;;;19.92;44.83
76940;BME280;65885;55.848;35.916;2023-06-10T07:12:38;100042.50;;;19.87;44.94
76940;BME280;65885;55.848;35.916;2023-06-10T07:15:07;100046.25;;;19.84;44.67
76940;BME280;65885;55.848;35.916;2023-06-10T07:17:34;100046.47;;;19.81;43.84
76940;BME280;65885;55.848;35.916;2023-06-10T07:20:05;100037.81;;;19.78;44.69
76940;BME280;65885;55.848;35.916;2023-06-10T07:22:35;100040.84;;;19.73;45.28
76940;BME280;65885;55.848;35.916;2023-06-10T07:25:05;100047.00;;;19.74;45.42
76940;BME280;65885;55.848;35.916;2023-06-10T07:27:34;100041.03;;;19.70;44.18
76940;BME280;65885;55.848;35.916;2023-06-10T07:30:02;100042.22;;;19.66;43.34
76940;BME280;65885;55.848;35.916;2023-06-10T07:32:32;100046.75;;;19.64;43.78
76940;BME280;65885;55.848;35.916;2023-06-10T07:34:59;100041.56;;;19.75;44.72
76940;BME280;65885;55.848;35.916;2023-06-10T07:37:30;100051.34;;;20.00;44.37
76940;BME280;65885;55.848;35.916;2023-06-10T07:39:59;100045.34;;;20.22;43.00
76940;BME280;65885;55.848;35.916;2023-06-10T07:42:26;100053.81;;;20.53;43.46
76940;BME280;65885;55.848;35.916;2023-06-10T07:44:54;100058.97;;;20.91;42.60
76940;BME280;65885;55.848;35.916;2023-06-10T07:47:21;100054.75;;;21.23;41.76
76940;BME280;65885;55.848;35.916;2023-06-10T07:49:48;100057.41;;;21.58;41.08
76940;BME280;65885;55.848;35.916;2023-06-10T07:52:16;100056.63;;;22.03;40.61
76940;BME280;65885;55.848;35.916;2023-06-10T07:54:43;100061.34;;;22.44;40.34
76940;BME280;65885;55.848;35.916;2023-06-10T07:57:13;100059.81;;;22.85;39.28
76940;BME280;65885;55.848;35.916;2023-06-10T07:59:40;100059.03;;;23.26;38.82
76940;BME280;65885;55.848;35.916;2023-06-10T08:02:10;100065.81;;;23.62;39.08
76940;BME280;65885;55.848;35.916;2023-06-10T08:04:37;100057.13;;;24.00;38.56
76940;BME280;65885;55.848;35.916;2023-06-10T08:07:05;100061.69;;;24.40;39.43
76940;BME280;65885;55.848;35.916;2023-06-10T08:09:32;100067.16;;;24.79;37.84
76940;BME280;65885;55.848;35.916;2023-06-10T08:12:00;100076.53;;;25.33;37.73
76940;BME280;65885;55.848;35.916;2023-06-10T08:14:29;100069.50;;;25.88;36.64
76940;BME280;65885;55.848;35.916;2023-06-10T08:16:57;100067.47;;;26.47;35.80
76940;BME280;65885;55.848;35.916;2023-06-10T08:19:24;100075.16;;;27.05;34.07
76940;BME280;65885;55.848;35.916;2023-06-10T08:21:51;100073.75;;;27.54;33.44
76940;BME280;65885;55.848;35.916;2023-06-10T08:24:21;100073.03;;;27.96;31.84
76940;BME280;65885;55.848;35.916;2023-06-10T08:27:08;100078.66;;;28.11;31.17
76940;BME280;65885;55.848;35.916;2023-06-10T08:29:46;100080.69;;;28.09;29.14
76940;BME280;65885;55.848;35.916;2023-06-10T08:32:13;100083.47;;;27.91;29.07
76940;BME280;65885;55.848;35.916;2023-06-10T08:34:41;100087.59;;;27.59;29.32
76940;BME280;65885;55.848;35.916;2023-06-10T08:37:09;100091.50;;;27.21;28.77
76940;BME280;65885;55.848;35.916;2023-06-10T08:39:36;100083.38;;;26.86;28.94
76940;BME280;65885;55.848;35.916;2023-06-10T08:42:10;100089.84;;;26.38;29.78
76940;BME280;65885;55.848;35.916;2023-06-10T08:44:40;100088.22;;;25.80;31.17
76940;BME280;65885;55.848;35.916;2023-06-10T08:47:14;100081.44;;;25.37;33.13
76940;BME280;65885;55.848;35.916;2023-06-10T08:49:44;100085.50;;;24.93;31.98
76940;BME280;65885;55.848;35.916;2023-06-10T08:52:15;100085.28;;;24.46;31.46
76940;BME280;65885;55.848;35.916;2023-06-10T08:54:43;100081.28;;;24.10;32.15
76940;BME280;65885;55.848;35.916;2023-06-10T08:57:15;100085.34;;;23.74;32.34
76940;BME280;65885;55.848;35.916;2023-06-10T08:59:46;100090.00;;;23.40;32.18
76940;BME280;65885;55.848;35.916;2023-06-10T09:02:15;100097.22;;;23.07;32.60
76940;BME280;65885;55.848;35.916;2023-06-10T09:04:46;100095.56;;;22.73;32.91
76940;BME280;65885;55.848;35.916;2023-06-10T09:07:15;100093.44;;;22.33;33.40
76940;BME280;65885;55.848;35.916;2023-06-10T09:09:44;100096.44;;;21.95;32.74
76940;BME280;65885;55.848;35.916;2023-06-10T09:12:13;100093.22;;;21.56;32.94
76940;BME280;65885;55.848;35.916;2023-06-10T09:14:41;100093.75;;;21.37;33.84
76940;BME280;65885;55.848;35.916;2023-06-10T09:17:09;100094.53;;;21.39;34.66
76940;BME280;65885;55.848;35.916;2023-06-10T09:19:40;100089.72;;;21.55;35.11
76940;BME280;65885;55.848;35.916;2023-06-10T09:22:08;100099.72;;;21.87;36.79
76940;BME280;65885;55.848;35.916;2023-06-10T09:24:36;100096.38;;;22.19;35.90
76940;BME280;65885;55.848;35.916;2023-06-10T09:27:06;100096.38;;;22.52;35.46
76940;BME280;65885;55.848;35.916;2023-06-10T09:29:45;100093.84;;;22.94;34.89
76940;BME280;65885;55.848;35.916;2023-06-10T09:32:14;100088.84;;;23.33;34.06
76940;BME280;65885;55.848;35.916;2023-06-10T09:34:44;100092.41;;;23.75;34.28
76940;BME280;65885;55.848;35.916;2023-06-10T09:37:12;100093.59;;;24.13;33.14
76940;BME280;65885;55.848;35.916;2023-06-10T09:39:39;100090.50;;;24.48;33.12
76940;BME280;65885;55.848;35.916;2023-06-10T09:42:16;100087.75;;;24.78;32.02
76940;BME280;65885;55.848;35.916;2023-06-10T09:44:49;100091.59;;;24.95;31.19
76940;BME280;65885;55.848;35.916;2023-06-10T09:47:21;100092.63;;;25.23;31.15
76940;BME280;65885;55.848;35.916;2023-06-10T09:49:51;100083.16;;;25.48;30.93
76940;BME280;65885;55.848;35.916;2023-06-10T09:52:21;100093.75;;;25.79;31.45
76940;BME280;65885;55.848;35.916;2023-06-10T09:54:50;100086.69;;;26.15;30.54
76940;BME280;65885;55.848;35.916;2023-06-10T09:57:18;100089.41;;;26.42;28.65
76940;BME280;65885;55.848;35.916;2023-06-10T09:59:46;100089.25;;;26.71;28.85
76940;BME280;65885;55.848;35.916;2023-06-10T10:02:14;100086.75;;;26.88;27.77
76940;BME280;65885;55.848;35.916;2023-06-10T10:04:42;100091.09;;;26.98;26.63
76940;BME280;65885;55.848;35.916;2023-06-10T10:07:12;100086.81;;;27.05;27.77
76940;BME280;65885;55.848;35.916;2023-06-10T10:09:41;100091.72;;;27.10;27.80
76940;BME280;65885;55.848;35.916;2023-06-10T10:12:10;100089.88;;;27.10;27.25
76940;BME280;65885;55.848;35.916;2023-06-10T10:14:39;100092.22;;;26.96;26.12
76940;BME280;65885;55.848;35.916;2023-06-10T10:17:11;100099.03;;;26.72;25.61
76940;BME280;65885;55.848;35.916;2023-06-10T10:19:43;100097.06;;;26.37;25.78
76940;BME280;65885;55.848;35.916;2023-06-10T10:22:19;100102.50;;;25.81;25.27
76940;BME280;65885;55.848;35.916;2023-06-10T10:24:55;100092.38;;;25.16;25.21
76940;BME280;65885;55.848;35.916;2023-06-10T10:27:27;100091.56;;;24.66;27.17
76940;BME280;65885;55.848;35.916;2023-06-10T10:29:55;100092.31;;;24.17;27.58
76940;BME280;65885;55.848;35.916;2023-06-10T10:32:26;100098.09;;;23.82;28.40
76940;BME280;65885;55.848;35.916;2023-06-10T10:35:03;100090.34;;;23.46;28.45
76940;BME280;65885;55.848;35.916;2023-06-10T10:37:36;100094.50;;;23.18;29.82
76940;BME280;65885;55.848;35.916;2023-06-10T10:40:04;100089.97;;;22.98;29.36
76940;BME280;65885;55.848;35.916;2023-06-10T10:42:34;100090.22;;;22.73;28.95
76940;BME280;65885;55.848;35.916;2023-06-10T10:45:03;100093.44;;;22.55;30.05
76940;BME280;65885;55.848;35.916;2023-06-10T10:47:33;100091.63;;;22.45;30.86
76940;BME280;65885;55.848;35.916;2023-06-10T10:50:13;100098.31;;;22.39;30.82
76940;BME280;65885;55.848;35.916;2023-06-10T10:52:53;100086.91;;;22.37;30.80
76940;BME280;65885;55.848;35.916;2023-06-10T10:55:22;100095.63;;;22.39;30.31
76940;BME280;65885;55.848;35.916;2023-06-10T10:57:57;100091.50;;;22.46;30.79
76940;BME280;65885;55.848;35.916;2023-06-10T11:00:27;100093.16;;;22.58;32.05
76940;BME280;65885;55.848;35.916;2023-06-10T11:02:58;100084.50;;;22.77;30.80
76940;BME280;65885;55.848;35.916;2023-06-10T11:05:36;100099.28;;;23.04;30.51
76940;BME280;65885;55.848;35.916;2023-06-10T11:08:08;100092.13;;;23.36;30.31
76940;BME280;65885;55.848;35.916;2023-06-10T11:10:36;100093.59;;;23.61;30.06
76940;BME280;65885;55.848;35.916;2023-06-10T11:13:08;100101.94;;;23.68;29.49
76940;BME280;65885;55.848;35.916;2023-06-10T11:15:44;100107.81;;;23.62;29.73
76940;BME280;65885;55.848;35.916;2023-06-10T11:18:20;100100.13;;;23.57;29.56
76940;BME280;65885;55.848;35.916;2023-06-10T11:20:53;100096.88;;;23.53;30.16
76940;BME280;65885;55.848;35.916;2023-06-10T11:23:33;100096.75;;;23.55;30.13
76940;BME280;65885;55.848;35.916;2023-06-10T11:29:06;100103.94;;;23.54;30.13
76940;BME280;65885;55.848;35.916;2023-06-10T11:31:39;100103.81;;;23.56;28.78
76940;BME280;65885;55.848;35.916;2023-06-10T11:34:07;100103.09;;;23.54;28.53
76940;BME280;65885;55.848;35.916;2023-06-10T11:36:38;100107.25;;;23.47;28.68
76940;BME280;65885;55.848;35.916;2023-06-10T11:39:10;100097.53;;;23.46;29.60
76940;BME280;65885;55.848;35.916;2023-06-10T11:41:38;100101.25;;;23.54;29.72
76940;BME280;65885;55.848;35.916;2023-06-10T11:44:10;100100.59;;;23.73;30.01
76940;BME280;65885;55.848;35.916;2023-06-10T11:46:38;100101.19;;;23.87;29.28
76940;BME280;65885;55.848;35.916;2023-06-10T11:49:06;100103.50;;;23.91;28.95
76940;BME280;65885;55.848;35.916;2023-06-10T11:51:35;100117.66;;;24.03;30.00
76940;BME280;65885;55.848;35.916;2023-06-10T11:54:03;100113.25;;;24.23;29.72
76940;BME280;65885;55.848;35.916;2023-06-10T11:56:32;100114.47;;;24.40;29.38
76940;BME280;65885;55.848;35.916;2023-06-10T11:59:01;100113.00;;;24.56;29.53
76940;BME280;65885;55.848;35.916;2023-06-10T12:01:32;100121.03;;;24.56;28.45
76940;BME280;65885;55.848;35.916;2023-06-10T12:04:03;100117.22;;;24.49;28.79
76940;BME280;65885;55.848;35.916;2023-06-10T12:06:38;100114.47;;;24.40;28.28
76940;BME280;65885;55.848;35.916;2023-06-10T12:09:06;100122.13;;;24.23;27.71
76940;BME280;65885;55.848;35.916;2023-06-10T12:11:36;100130.03;;;23.94;28.14
76940;BME280;65885;55.848;35.916;2023-06-10T12:14:04;100124.22;;;23.68;29.37
76940;BME280;65885;55.848;35.916;2023-06-10T12:16:33;100114.44;;;23.46;29.01
76940;BME280;65885;55.848;35.916;2023-06-10T12:19:02;100129.81;;;23.44;28.92
76940;BME280;65885;55.848;35.916;2023-06-10T12:21:39;100114.78;;;23.53;28.95
76940;BME280;65885;55.848;35.916;2023-06-10T12:24:14;100117.31;;;23.66;29.29
76940;BME280;65885;55.848;35.916;2023-06-10T12:26:45;100114.56;;;23.77;28.57
76940;BME280;65885;55.848;35.916;2023-06-10T12:29:20;100117.56;;;23.84;28.75
76940;BME280;65885;55.848;35.916;2023-06-10T12:32:08;100117.41;;;23.85;28.85
76940;BME280;65885;55.848;35.916;2023-06-10T12:34:39;100116.38;;;23.76;26.99
76940;BME280;65885;55.848;35.916;2023-06-10T12:37:12;100119.72;;;23.58;26.98
76940;BME280;65885;55.848;35.916;2023-06-10T12:39:51;100118.34;;;23.42;28.78
76940;BME280;65885;55.848;35.916;2023-06-10T12:42:28;100116.78;;;23.40;29.70
76940;BME280;65885;55.848;35.916;2023-06-10T12:45:08;100125.94;;;23.37;29.22
76940;BME280;65885;55.848;35.916;2023-06-10T12:47:42;100118.91;;;23.25;29.62
76940;BME280;65885;55.848;35.916;2023-06-10T12:50:13;100125.41;;;23.11;29.84
76940;BME280;65885;55.848;35.916;2023-06-10T12:52:43;100128.91;;;22.91;29.82
76940;BME280;65885;55.848;35.916;2023-06-10T12:55:12;100116.50;;;22.67;29.95
76940;BME280;65885;55.848;35.916;2023-06-10T12:57:49;100115.56;;;22.35;30.94
76940;BME280;65885;55.848;35.916;2023-06-10T13:00:20;100116.19;;;22.16;30.62
76940;BME280;65885;55.848;35.916;2023-06-10T13:02:56;100122.72;;;22.12;30.62